Time;durP1;ratioP1;P1;durP2;ratioP2;P2;SDS_P1;SDS_P2;PMS_P1;PMS_P2;Temp;Humidity;BMP_temperature;BMP_pressure;BME280_temperature;BME280_humidity;BME280_pressure;Samples;Min_cycle;Max_cycle;Signal;HPM_P1;HPM_P2
2023/10/11 00:01:47;;;;;;;10.43;5.85;;;19.90;95.40;;;;;;5011349;28;20112;-70
2023/10/11 00:04:23;;;;;;;8.18;4.55;;;19.90;95.50;;;;;;5013289;28;20026;-70
2023/10/11 00:06:50;;;;;;;7.13;5.18;;;19.90;95.60;;;;;;5013501;28;20471;-70
2023/10/11 00:09:16;;;;;;;7.30;5.03;;;19.90;95.70;;;;;;5013322;28;20135;-70
2023/10/11 00:11:42;;;;;;;9.38;5.70;;;19.90;95.70;;;;;;5012853;28;20442;-70
2023/10/11 00:14:08;;;;;;;9.15;4.97;;;19.80;95.90;;;;;;5013156;28;20018;-70
2023/10/11 00:16:35;;;;;;;7.68;5.05;;;19.80;96.00;;;;;;5013014;28;20034;-70
2023/10/11 00:19:01;;;;;;;10.90;5.07;;;19.80;96.00;;;;;;5013321;28;20052;-70
2023/10/11 00:21:40;;;;;;;8.40;4.57;;;19.80;96.10;;;;;;5012490;28;20557;-70
2023/10/11 00:24:09;;;;;;;7.78;5.00;;;19.80;96.10;;;;;;5012473;28;20096;-70
2023/10/11 00:26:35;;;;;;;7.57;5.25;;;19.80;96.10;;;;;;5013077;28;20037;-70
2023/10/11 00:29:01;;;;;;;9.68;5.20;;;19.80;96.10;;;;;;5012955;28;20034;-70
2023/10/11 00:31:26;;;;;;;9.20;5.60;;;19.80;96.10;;;;;;5012004;28;20479;-71
2023/10/11 00:33:55;;;;;;;8.85;4.63;;;19.70;96.10;;;;;;5016040;28;20090;-70
2023/10/11 00:36:24;;;;;;;9.88;4.82;;;19.80;96.20;;;;;;5017209;28;20018;-70
2023/10/11 00:38:50;;;;;;;8.75;4.90;;;19.70;96.10;;;;;;5016956;28;20029;-70
2023/10/11 00:41:19;;;;;;;8.18;5.00;;;19.70;96.20;;;;;;5015063;28;20021;-70
2023/10/11 00:43:47;;;;;;;5.75;4.72;;;19.60;96.20;;;;;;5016912;28;20156;-70
2023/10/11 00:46:14;;;;;;;8.43;4.75;;;19.60;96.30;;;;;;5016480;28;20544;-70
2023/10/11 00:48:54;;;;;;;8.93;5.30;;;19.70;96.30;;;;;;5016797;28;20109;-70
2023/10/11 00:51:32;;;;;;;7.35;4.97;;;19.60;96.40;;;;;;5013557;28;20037;-70
2023/10/11 00:54:01;;;;;;;7.32;5.53;;;19.60;96.50;;;;;;5016093;28;20032;-70
2023/10/11 00:56:31;;;;;;;11.35;5.28;;;19.60;96.50;;;;;;5016143;28;20030;-71
2023/10/11 00:58:58;;;;;;;7.60;4.93;;;19.60;96.60;;;;;;5015910;28;20029;-70
2023/10/11 01:01:24;;;;;;;9.38;5.22;;;19.60;96.60;;;;;;4999462;28;20386;-71
2023/10/11 01:03:52;;;;;;;10.35;5.32;;;19.50;96.70;;;;;;5016694;28;20471;-70
2023/10/11 01:06:18;;;;;;;8.13;5.13;;;19.50;96.80;;;;;;5016382;28;20605;-71
2023/10/11 01:08:44;;;;;;;8.27;5.45;;;19.50;96.80;;;;;;5003243;28;20038;-70
2023/10/11 01:11:13;;;;;;;9.20;5.15;;;19.50;96.90;;;;;;4996925;28;20141;-70
2023/10/11 01:13:40;;;;;;;8.77;6.20;;;19.50;97.20;;;;;;4997066;28;20030;-70
2023/10/11 01:16:09;;;;;;;7.40;5.05;;;19.50;97.00;;;;;;5015740;28;20097;-70
2023/10/11 01:18:40;;;;;;;8.45;5.75;;;19.50;97.00;;;;;;5015391;28;20030;-71
2023/10/11 01:21:07;;;;;;;11.95;5.43;;;19.50;97.10;;;;;;5015190;28;20018;-70
2023/10/11 01:23:34;;;;;;;7.55;5.13;;;19.50;97.10;;;;;;5015787;28;20076;-70
2023/10/11 01:26:07;;;;;;;7.07;5.43;;;19.40;97.20;;;;;;5016043;28;20022;-70
2023/10/11 01:28:46;;;;;;;7.57;5.68;;;19.40;97.20;;;;;;5015888;28;20030;-70
2023/10/11 01:31:16;;;;;;;7.30;5.35;;;19.40;97.30;;;;;;5015396;28;20100;-70
2023/10/11 01:33:44;;;;;;;9.57;5.72;;;19.40;97.30;;;;;;5016071;28;20026;-70
2023/10/11 01:36:11;;;;;;;7.95;5.80;;;19.40;97.30;;;;;;5016097;28;20021;-70
2023/10/11 01:38:48;;;;;;;8.05;5.47;;;19.40;97.60;;;;;;5015976;28;20033;-70
2023/10/11 01:41:19;;;;;;;13.13;6.00;;;19.40;97.40;;;;;;5013730;28;20359;-70
2023/10/11 01:43:49;;;;;;;10.37;5.93;;;19.40;97.30;;;;;;5011616;28;20469;-70
2023/10/11 01:46:35;;;;;;;7.25;5.57;;;19.40;97.30;;;;;;5015133;28;20585;-70
2023/10/11 01:49:02;;;;;;;10.85;5.88;;;19.30;97.30;;;;;;5015815;28;20026;-70
2023/10/11 01:51:27;;;;;;;6.60;5.57;;;19.40;97.40;;;;;;5014720;28;20521;-71
2023/10/11 01:54:00;;;;;;;13.70;6.60;;;19.30;97.30;;;;;;5015892;28;20101;-70
2023/10/11 01:56:26;;;;;;;11.10;5.63;;;19.30;97.40;;;;;;5015573;28;20033;-70
2023/10/11 01:58:53;;;;;;;12.57;5.55;;;19.30;97.30;;;;;;5015568;28;20025;-70
2023/10/11 02:01:25;;;;;;;8.48;5.65;;;19.20;97.30;;;;;;5013956;28;20018;-70
2023/10/11 02:03:53;;;;;;;7.93;6.22;;;19.30;97.40;;;;;;4996742;28;20105;-70
2023/10/11 02:06:20;;;;;;;9.90;6.18;;;19.20;97.40;;;;;;4995722;28;20498;-70
2023/10/11 02:08:45;;;;;;;9.88;6.35;;;19.20;97.40;;;;;;4995737;28;20034;-70
2023/10/11 02:11:14;;;;;;;9.57;5.97;;;19.10;97.40;;;;;;5004989;28;20076;-70
2023/10/11 02:13:43;;;;;;;10.55;6.28;;;19.10;97.50;;;;;;5013078;28;20032;-70
2023/10/11 02:16:14;;;;;;;9.80;6.05;;;19.10;97.40;;;;;;5015381;28;20025;-71
2023/10/11 02:18:40;;;;;;;11.80;6.10;;;19.10;97.40;;;;;;5015353;28;20033;-70
2023/10/11 02:21:06;;;;;;;9.93;6.28;;;19.10;97.40;;;;;;5013919;28;20072;-70
2023/10/11 02:23:39;;;;;;;11.93;6.60;;;19.10;97.40;;;;;;5015187;28;20030;-70
2023/10/11 02:26:16;;;;;;;9.60;6.57;;;19.00;97.50;;;;;;5014899;28;20022;-70
2023/10/11 02:28:43;;;;;;;9.45;6.93;;;19.00;97.60;;;;;;5014631;28;20042;-70
2023/10/11 02:31:13;;;;;;;13.48;6.90;;;19.00;97.70;;;;;;5013563;28;20076;-70
2023/10/11 02:33:39;;;;;;;10.43;7.03;;;18.80;97.80;;;;;;5013711;28;20164;-70
2023/10/11 02:36:09;;;;;;;9.55;6.72;;;18.80;97.90;;;;;;5011553;28;21293;-70
2023/10/11 02:38:49;;;;;;;8.35;6.00;;;18.70;98.00;;;;;;5012598;28;20494;-70
2023/10/11 02:41:20;;;;;;;12.95;6.97;;;18.70;98.10;;;;;;5012842;28;20422;-70
2023/10/11 02:43:49;;;;;;;10.02;6.93;;;18.70;98.20;;;;;;5014265;28;20056;-70
2023/10/11 02:46:22;;;;;;;11.07;7.38;;;18.60;98.40;;;;;;5014448;28;20474;-70
2023/10/11 02:48:49;;;;;;;12.10;6.57;;;18.60;98.40;;;;;;5014705;28;20041;-70
2023/10/11 02:51:17;;;;;;;10.68;6.20;;;18.60;98.40;;;;;;5014586;28;20514;-71
2023/10/11 02:53:45;;;;;;;11.40;7.57;;;18.70;98.40;;;;;;5014267;28;20129;-71
2023/10/11 02:56:12;;;;;;;11.48;7.00;;;18.70;98.40;;;;;;5013066;28;20391;-70
2023/10/11 02:58:39;;;;;;;9.48;6.90;;;18.80;98.40;;;;;;5014044;28;20124;-70
2023/10/11 03:01:14;;;;;;;10.05;6.63;;;18.60;98.50;;;;;;5013920;28;20029;-70
2023/10/11 03:03:42;;;;;;;8.98;7.97;;;18.70;98.50;;;;;;5013862;28;20026;-70
2023/10/11 03:06:08;;;;;;;10.50;7.78;;;18.70;98.50;;;;;;5014244;28;20034;-70
2023/10/11 03:08:35;;;;;;;12.98;7.25;;;18.80;98.50;;;;;;5014224;28;20113;-70
2023/10/11 03:11:04;;;;;;;13.95;7.32;;;18.70;98.60;;;;;;5012489;28;20030;-71
2023/10/11 03:13:38;;;;;;;8.82;6.53;;;18.70;98.60;;;;;;5005377;28;20028;-71
2023/10/11 03:16:10;;;;;;;12.77;8.05;;;18.80;98.60;;;;;;5002474;28;20053;-70
2023/10/11 03:18:39;;;;;;;8.85;7.72;;;18.60;98.70;;;;;;5014089;28;20018;-70
2023/10/11 03:21:19;;;;;;;10.77;7.78;;;18.60;98.90;;;;;;5013867;28;20022;-70
2023/10/11 03:23:54;;;;;;;10.88;7.78;;;18.70;98.90;;;;;;5012725;28;20096;-70
2023/10/11 03:26:23;;;;;;;7.93;7.00;;;18.60;98.80;;;;;;5013556;28;20118;-70
2023/10/11 03:28:57;;;;;;;10.20;7.93;;;18.60;98.90;;;;;;5013742;28;20048;-70
2023/10/11 03:31:24;;;;;;;13.10;8.13;;;18.60;99.10;;;;;;5012440;28;20511;-70
2023/10/11 03:33:50;;;;;;;10.38;8.23;;;18.60;99.10;;;;;;5009237;28;20061;-70
2023/10/11 03:36:20;;;;;;;9.73;7.30;;;18.60;99.10;;;;;;4994253;28;20054;-71
2023/10/11 03:38:51;;;;;;;11.15;7.38;;;18.70;99.10;;;;;;5004730;28;20076;-70
2023/10/11 03:41:24;;;;;;;11.00;7.38;;;18.60;99.30;;;;;;5013684;28;20022;-70
2023/10/11 03:43:54;;;;;;;13.50;8.75;;;18.60;99.30;;;;;;5013688;28;20077;-71
2023/10/11 03:46:28;;;;;;;13.18;8.18;;;18.60;99.30;;;;;;5013722;28;20077;-70
2023/10/11 03:49:02;;;;;;;10.57;8.25;;;18.60;99.40;;;;;;5013341;28;20517;-70
2023/10/11 03:51:29;;;;;;;11.00;8.05;;;18.60;99.40;;;;;;5010368;28;20030;-70
2023/10/11 03:53:55;;;;;;;12.38;8.80;;;18.60;99.60;;;;;;5010234;28;20037;-70
2023/10/11 03:56:20;;;;;;;12.07;8.80;;;18.60;99.70;;;;;;5011753;28;20022;-70
2023/10/11 03:58:50;;;;;;;13.05;9.05;;;18.50;99.80;;;;;;5012702;28;20028;-70
2023/10/11 04:03:44;;;;;;;10.20;7.65;;;18.40;99.90;;;;;;5013378;28;20112;-70
2023/10/11 04:06:13;;;;;;;10.77;8.23;;;18.30;99.90;;;;;;5013321;28;20490;-70
2023/10/11 04:08:41;;;;;;;16.77;9.23;;;18.40;99.90;;;;;;5013563;28;20072;-70
2023/10/11 04:11:16;;;;;;;10.73;8.70;;;18.40;99.90;;;;;;5012494;28;20486;-71
2023/10/11 04:13:45;;;;;;;14.25;8.98;;;18.40;99.90;;;;;;5014022;28;20030;-70
2023/10/11 04:16:13;;;;;;;14.05;8.65;;;18.40;99.90;;;;;;5013490;28;20497;-70
2023/10/11 04:18:38;;;;;;;11.13;7.43;;;18.40;99.90;;;;;;5013453;28;20110;-71
2023/10/11 04:23:35;;;;;;;14.60;7.60;;;18.80;99.70;;;;;;5013228;28;20030;-71
2023/10/11 04:26:07;;;;;;;10.32;7.25;;;18.90;99.50;;;;;;5011960;28;20028;-71
2023/10/11 04:28:33;;;;;;;10.35;7.70;;;19.00;99.50;;;;;;5012971;28;20050;-71
2023/10/11 04:33:50;;;;;;;10.65;7.95;;;19.00;99.40;;;;;;5013364;28;20181;-71
2023/10/11 04:36:20;;;;;;;10.63;7.80;;;19.00;99.40;;;;;;5013215;28;20053;-71
2023/10/11 04:38:49;;;;;;;9.57;7.72;;;19.10;99.40;;;;;;5012754;28;20069;-71
2023/10/11 04:41:16;;;;;;;10.55;7.93;;;19.10;99.50;;;;;;5013352;28;20065;-71
2023/10/11 04:43:50;;;;;;;10.98;7.88;;;19.10;99.50;;;;;;5013139;28;20015;-71
2023/10/11 04:46:16;;;;;;;13.98;8.20;;;19.10;99.50;;;;;;5012894;28;20036;-71
2023/10/11 04:48:44;;;;;;;10.82;8.18;;;19.10;99.60;;;;;;5013286;28;20085;-71
2023/10/11 04:57:07;;;;;;;10.60;7.85;;;19.10;99.60;;;;;;5013084;28;20459;-71
2023/10/11 04:59:16;;;;;;;;;;;19.10;99.70;;;;;;5010054;28;20034;-72
2023/10/11 05:04:27;;;;;;;12.05;8.13;;;19.10;99.60;;;;;;5012681;28;20053;-71
2023/10/11 05:06:54;;;;;;;10.27;7.20;;;19.10;99.70;;;;;;5011115;28;20049;-71
2023/10/11 05:11:50;;;;;;;13.00;7.68;;;19.00;99.70;;;;;;5012698;28;20034;-71
2023/10/11 05:25:37;;;;;;;11.25;7.70;;;19.00;99.90;;;;;;5016362;28;20030;-70
2023/10/11 05:28:15;;;;;;;12.80;8.48;;;19.00;99.80;;;;;;5015054;28;20041;-70
2023/10/11 05:30:44;;;;;;;;;;;19.10;99.80;;;;;;5016159;28;20030;-71
2023/10/11 05:33:41;;;;;;;13.57;7.93;;;19.10;99.70;;;;;;5015840;28;20354;-71
2023/10/11 05:36:36;;;;;;;10.85;8.02;;;19.10;99.80;;;;;;5013682;28;20038;-71
2023/10/11 05:52:44;;;;;;;9.60;6.53;;;18.80;99.90;;;;;;5015132;28;20053;-71
2023/10/11 05:55:10;;;;;;;7.63;5.75;;;18.80;99.90;;;;;;5013279;28;20022;-72
2023/10/11 05:57:35;;;;;;;10.75;5.90;;;18.80;99.90;;;;;;5007066;28;20439;-72
2023/10/11 06:00:10;;;;;;;13.48;7.93;;;18.80;99.90;;;;;;5008528;28;20022;-72
2023/10/11 06:02:38;;;;;;;16.40;7.07;;;18.80;99.90;;;;;;5012175;28;20022;-72
2023/10/11 06:05:07;;;;;;;9.25;6.25;;;18.80;99.90;;;;;;5005849;28;20494;-72
2023/10/11 06:07:37;;;;;;;13.50;7.43;;;18.80;99.90;;;;;;5011625;28;20026;-76
2023/10/11 06:10:08;;;;;;;9.30;6.75;;;18.70;99.90;;;;;;5015075;28;20022;-73
2023/10/11 06:12:35;;;;;;;12.20;6.30;;;18.70;99.90;;;;;;5007070;28;20388;-71
2023/10/11 06:15:08;;;;;;;10.75;6.43;;;18.70;99.90;;;;;;4993287;28;20050;-72
2023/10/11 06:17:41;;;;;;;12.70;8.00;;;18.70;99.90;;;;;;5005719;28;20180;-72
2023/10/11 06:20:27;;;;;;;11.82;7.20;;;18.70;99.90;;;;;;5012718;28;20108;-71
2023/10/11 06:22:56;;;;;;;9.77;6.80;;;18.70;99.90;;;;;;5013104;28;20033;-71
2023/10/11 06:28:13;;;;;;;10.63;7.10;;;18.70;99.90;;;;;;5014550;28;20406;-72
2023/10/11 06:30:48;;;;;;;9.75;6.32;;;18.70;99.90;;;;;;5014962;28;20017;-71
2023/10/11 06:33:14;;;;;;;9.45;6.47;;;18.70;99.90;;;;;;5014616;28;20083;-71
2023/10/11 06:35:49;;;;;;;8.57;6.90;;;18.70;99.90;;;;;;5013673;28;20022;-72
2023/10/11 06:38:15;;;;;;;11.20;6.57;;;18.70;99.90;;;;;;5013486;28;20049;-71
2023/10/11 06:40:47;;;;;;;12.65;6.68;;;18.70;99.90;;;;;;5014902;28;20026;-71
2023/10/11 06:43:13;;;;;;;9.45;6.40;;;18.80;99.90;;;;;;5014832;28;20022;-72
2023/10/11 06:45:42;;;;;;;11.93;6.60;;;18.80;99.90;;;;;;5014757;28;20101;-71
2023/10/11 06:48:12;;;;;;;9.52;7.88;;;18.90;99.90;;;;;;5014243;28;20049;-71
2023/10/11 06:50:39;;;;;;;13.23;6.18;;;19.00;99.90;;;;;;5014920;28;20144;-71
2023/10/11 06:53:09;;;;;;;12.18;7.68;;;19.10;99.90;;;;;;5013291;28;20054;-71
2023/10/11 06:55:39;;;;;;;17.15;8.82;;;19.10;99.90;;;;;;5014642;28;20022;-71
2023/10/11 06:58:15;;;;;;;11.60;8.32;;;19.20;99.90;;;;;;5013060;28;20034;-71
2023/10/11 07:00:45;;;;;;;13.18;7.55;;;19.00;99.90;;;;;;5014571;28;20037;-71
2023/10/11 07:05:48;;;;;;;10.27;6.78;;;19.10;99.90;;;;;;5014470;28;20511;-71
2023/10/11 07:08:18;;;;;;;10.77;7.32;;;19.10;99.90;;;;;;5014322;28;20030;-71
2023/10/11 07:11:00;;;;;;;10.00;6.05;;;19.20;99.90;;;;;;5014453;28;20030;-71
2023/10/11 07:13:29;;;;;;;8.95;6.80;;;19.20;99.90;;;;;;5012986;28;20397;-71
2023/10/11 07:15:57;;;;;;;13.77;9.90;;;19.10;99.90;;;;;;5013987;28;20022;-72
2023/10/11 07:18:27;;;;;;;9.20;6.32;;;19.10;99.90;;;;;;5013761;28;20390;-71
2023/10/11 07:23:35;;;;;;;11.15;6.45;;;19.30;99.90;;;;;;5014343;28;20053;-71
2023/10/11 07:26:23;;;;;;;9.18;6.78;;;19.20;99.90;;;;;;5013868;28;20022;-71
2023/10/11 07:28:50;;;;;;;13.88;7.32;;;19.30;99.90;;;;;;5013768;28;20034;-71
2023/10/11 07:31:21;;;;;;;11.27;6.15;;;19.40;99.90;;;;;;5012419;28;20024;-71
2023/10/11 07:33:50;;;;;;;12.50;8.60;;;19.40;99.90;;;;;;5012542;28;20021;-71
2023/10/11 07:36:18;;;;;;;11.90;6.97;;;19.40;99.90;;;;;;5013821;28;20030;-71
2023/10/11 07:39:00;;;;;;;16.42;8.45;;;19.40;99.90;;;;;;5013778;28;20050;-71
2023/10/11 07:41:29;;;;;;;9.57;7.00;;;19.30;99.90;;;;;;5013504;28;20533;-71
2023/10/11 07:44:01;;;;;;;11.20;7.53;;;19.30;99.90;;;;;;5013731;28;20120;-71
2023/10/11 07:46:28;;;;;;;15.35;8.73;;;19.30;99.90;;;;;;5012264;28;20026;-71
2023/10/11 07:49:01;;;;;;;12.10;7.75;;;19.30;99.90;;;;;;5013496;28;20030;-71
2023/10/11 07:51:34;;;;;;;13.20;6.95;;;19.40;99.90;;;;;;5013605;28;20025;-71
2023/10/11 07:54:06;;;;;;;9.20;7.53;;;19.40;99.90;;;;;;5013551;28;20034;-71
2023/10/11 07:56:35;;;;;;;;;;;19.40;99.90;;;;;;5014050;28;20152;-71
2023/10/11 07:59:07;;;;;;;14.98;8.38;;;19.40;99.90;;;;;;5012103;28;19905;-71
2023/10/11 08:01:42;;;;;;;12.90;7.68;;;19.40;99.90;;;;;;5013428;28;20046;-71
2023/10/11 08:04:21;;;;;;;20.85;9.23;;;19.50;99.90;;;;;;5012065;28;20084;-71
2023/10/11 08:06:50;;;;;;;41.38;11.15;;;19.50;99.90;;;;;;5013473;28;20029;-71
2023/10/11 08:09:19;;;;;;;17.10;8.85;;;19.40;99.90;;;;;;5011942;28;20038;-71
2023/10/11 08:11:59;;;;;;;24.33;9.90;;;19.30;99.90;;;;;;5013506;28;20552;-71
2023/10/11 08:14:32;;;;;;;22.00;9.68;;;19.40;99.90;;;;;;5013251;28;20145;-71
2023/10/11 08:16:59;;;;;;;17.08;9.45;;;19.50;99.90;;;;;;5013155;28;20077;-71
2023/10/11 08:19:25;;;;;;;12.85;8.68;;;19.40;99.90;;;;;;5013084;28;20364;-71
2023/10/11 08:21:57;;;;;;;20.85;12.90;;;19.50;99.90;;;;;;5013508;28;20033;-71
2023/10/11 08:24:27;;;;;;;16.58;13.13;;;19.50;99.90;;;;;;5013179;28;20037;-71
2023/10/11 08:26:57;;;;;;;12.32;9.38;;;19.50;99.90;;;;;;5013226;28;20530;-71
2023/10/11 08:29:29;;;;;;;24.45;11.77;;;19.50;99.90;;;;;;5011637;28;20120;-71
2023/10/11 08:31:59;;;;;;;12.43;8.93;;;19.40;99.90;;;;;;5013390;28;20152;-72
2023/10/11 08:34:25;;;;;;;15.07;9.18;;;19.40;99.90;;;;;;5011798;28;20113;-71
2023/10/11 08:36:55;;;;;;;16.13;10.80;;;19.50;99.90;;;;;;5013331;28;20022;-71
2023/10/11 08:39:35;;;;;;;17.95;11.68;;;19.50;99.90;;;;;;5013059;28;20053;-71
2023/10/11 08:42:14;;;;;;;14.82;11.73;;;19.50;99.90;;;;;;5013089;28;20030;-72
2023/10/11 08:44:45;;;;;;;14.68;10.70;;;19.50;99.90;;;;;;5012658;28;20025;-71
2023/10/11 08:47:16;;;;;;;14.20;10.80;;;19.50;99.90;;;;;;5013095;28;20450;-71
2023/10/11 08:49:46;;;;;;;17.03;12.03;;;19.70;99.90;;;;;;5013089;28;20018;-71
2023/10/11 08:52:23;;;;;;;16.00;10.43;;;19.70;99.90;;;;;;5013128;28;20038;-71
2023/10/11 08:54:49;;;;;;;14.52;10.93;;;19.70;99.90;;;;;;5015552;28;20010;-71
2023/10/11 08:57:18;;;;;;;13.82;10.40;;;19.70;99.90;;;;;;5016829;28;20026;-71
2023/10/11 08:59:48;;;;;;;18.38;12.55;;;19.70;99.90;;;;;;5016417;28;20022;-71
2023/10/11 09:02:17;;;;;;;12.73;10.32;;;19.70;99.90;;;;;;5016646;28;20037;-71
2023/10/11 09:05:07;;;;;;;16.48;11.32;;;19.80;99.90;;;;;;5016602;28;20106;-71
2023/10/11 09:07:45;;;;;;;24.42;13.18;;;19.70;99.90;;;;;;5016601;28;20115;-71
2023/10/11 09:10:27;;;;;;;14.50;10.65;;;19.70;99.90;;;;;;5016432;28;20018;-71
2023/10/11 09:12:59;;;;;;;20.35;13.27;;;19.70;99.90;;;;;;5016365;28;20061;-71
2023/10/11 09:15:44;;;;;;;16.65;12.00;;;19.80;99.90;;;;;;5016518;28;20030;-71
2023/10/11 09:18:14;;;;;;;17.60;11.57;;;19.80;99.90;;;;;;5016293;28;20030;-71
2023/10/11 09:20:44;;;;;;;15.48;10.93;;;19.80;99.90;;;;;;5016201;28;20041;-71
2023/10/11 09:23:14;;;;;;;23.13;13.35;;;19.70;99.90;;;;;;5016437;28;20067;-71
2023/10/11 09:25:57;;;;;;;16.50;11.88;;;19.70;99.90;;;;;;5016098;28;20474;-71
2023/10/11 09:28:24;;;;;;;19.92;12.93;;;19.70;99.90;;;;;;5014326;28;20340;-71
2023/10/11 09:31:10;;;;;;;29.27;16.60;;;19.70;99.90;;;;;;5016019;28;20145;-71
2023/10/11 09:33:49;;;;;;;20.35;12.18;;;19.70;99.90;;;;;;5016075;28;20492;-71
2023/10/11 09:36:21;;;;;;;19.33;11.65;;;19.80;99.90;;;;;;5016080;28;20104;-71
2023/10/11 09:38:55;;;;;;;16.45;11.90;;;19.80;99.90;;;;;;5015970;28;20022;-71
2023/10/11 09:41:41;;;;;;;19.00;13.00;;;19.90;99.90;;;;;;5016164;28;20018;-71
2023/10/11 09:44:10;;;;;;;16.02;10.70;;;19.90;99.90;;;;;;5015911;28;20022;-71
2023/10/11 09:46:37;;;;;;;18.38;11.73;;;19.90;99.90;;;;;;5015651;28;20026;-71
2023/10/11 09:49:05;;;;;;;14.45;12.40;;;19.90;99.90;;;;;;5015852;28;20467;-71
2023/10/11 09:51:31;;;;;;;22.27;14.30;;;19.80;99.90;;;;;;5015764;28;20026;-71
2023/10/11 09:54:07;;;;;;;16.77;10.95;;;19.80;99.90;;;;;;5015772;28;20164;-71
2023/10/11 09:56:57;;;;;;;17.23;11.07;;;19.70;99.90;;;;;;5015302;28;20033;-71
2023/10/11 10:00:00;;;;;;;23.88;12.63;;;19.80;99.90;;;;;;5015556;28;20022;-71
2023/10/11 10:02:34;;;;;;;21.27;12.38;;;19.90;99.90;;;;;;5015425;28;20021;-71
2023/10/11 10:05:04;;;;;;;19.52;12.63;;;19.90;99.90;;;;;;5015333;28;20018;-71
2023/10/11 10:10:16;;;;;;;19.85;12.20;;;19.90;99.90;;;;;;5015350;28;20034;-71
2023/10/11 10:12:59;;;;;;;15.73;11.18;;;20.00;99.90;;;;;;5015344;28;20109;-72
2023/10/11 10:15:32;;;;;;;;;;;20.00;99.90;;;;;;5016004;28;20034;-72
2023/10/11 10:18:01;;;;;;;20.80;13.98;;;20.00;99.90;;;;;;5015189;28;19913;-73
2023/10/11 10:20:41;;;;;;;19.65;11.00;;;19.90;99.90;;;;;;5015328;28;20383;-72
2023/10/11 10:23:15;;;;;;;29.20;16.10;;;20.00;99.90;;;;;;5015207;28;20101;-71
2023/10/11 10:26:06;;;;;;;14.43;10.55;;;19.90;99.90;;;;;;5014214;28;20032;-70
2023/10/11 10:28:45;;;;;;;17.10;12.15;;;20.00;99.90;;;;;;5013476;28;20064;-70
2023/10/11 10:31:21;;;;;;;14.70;10.90;;;19.90;99.90;;;;;;5013210;28;20033;-71
2023/10/11 10:34:05;;;;;;;16.70;10.73;;;19.90;99.90;;;;;;5013556;28;20398;-73
2023/10/11 10:36:31;;;;;;;19.88;11.68;;;19.80;99.90;;;;;;5014078;28;20029;-72
2023/10/11 10:39:00;;;;;;;19.85;12.27;;;19.80;99.90;;;;;;5013512;28;20390;-68
2023/10/11 10:41:31;;;;;;;22.27;12.80;;;19.90;99.90;;;;;;5011171;28;20018;-71
2023/10/11 10:44:08;;;;;;;18.88;11.85;;;19.80;99.90;;;;;;5008596;28;20491;-70
2023/10/11 10:46:50;;;;;;;20.17;12.23;;;19.80;99.90;;;;;;5013418;28;20053;-70
2023/10/11 10:49:20;;;;;;;16.35;12.15;;;19.90;99.90;;;;;;5014447;28;20025;-70
2023/10/11 10:51:49;;;;;;;19.80;12.82;;;19.90;99.90;;;;;;5014291;28;20085;-70
2023/10/11 10:54:21;;;;;;;16.50;11.50;;;19.80;99.90;;;;;;5014253;28;20029;-71
2023/10/11 10:56:47;;;;;;;16.60;11.85;;;19.90;99.90;;;;;;5014246;28;20025;-70
2023/10/11 10:59:15;;;;;;;19.85;13.05;;;19.90;99.90;;;;;;5012587;28;20033;-70
2023/10/11 11:01:47;;;;;;;20.70;12.90;;;19.90;99.90;;;;;;5013523;28;20036;-70
2023/10/11 11:04:15;;;;;;;17.60;12.25;;;19.90;99.90;;;;;;5014359;28;20029;-70
2023/10/11 11:06:46;;;;;;;19.50;12.25;;;19.90;99.90;;;;;;5012928;28;20429;-70
2023/10/11 11:09:25;;;;;;;20.63;12.32;;;19.90;99.90;;;;;;5012976;28;20033;-70
2023/10/11 11:12:02;;;;;;;16.95;12.07;;;20.00;99.90;;;;;;4994722;28;20023;-70
2023/10/11 11:14:27;;;;;;;19.35;13.50;;;19.90;99.90;;;;;;5004017;28;20078;-70
2023/10/11 11:16:58;;;;;;;22.58;12.55;;;20.00;99.90;;;;;;5012072;28;20434;-70
2023/10/11 11:19:26;;;;;;;18.73;12.02;;;20.00;99.90;;;;;;5014005;28;20378;-70
2023/10/11 11:22:19;;;;;;;21.75;13.35;;;20.00;99.90;;;;;;5013849;28;20096;-72
2023/10/11 11:24:46;;;;;;;21.45;13.57;;;20.10;99.90;;;;;;5013122;28;20117;-71
2023/10/11 11:27:29;;;;;;;25.38;12.95;;;20.10;99.90;;;;;;5012472;28;20068;-71
2023/10/11 11:30:02;;;;;;;18.48;12.98;;;20.10;99.90;;;;;;5009028;28;20042;-71
2023/10/11 11:32:45;;;;;;;17.95;13.40;;;20.10;99.90;;;;;;5012173;28;20041;-71
2023/10/11 11:35:25;;;;;;;25.02;12.13;;;20.10;99.90;;;;;;5012200;28;20023;-72
2023/10/11 11:38:06;;;;;;;19.20;13.13;;;20.10;99.90;;;;;;5009312;28;20095;-71
2023/10/11 11:40:46;;;;;;;24.08;15.18;;;20.10;99.90;;;;;;5010630;28;20065;-71
2023/10/11 11:43:12;;;;;;;25.38;14.68;;;20.10;99.90;;;;;;5011337;28;20026;-71
2023/10/11 11:45:38;;;;;;;22.90;14.50;;;20.10;99.90;;;;;;5009897;28;20032;-72
2023/10/11 11:48:05;;;;;;;23.27;13.60;;;20.10;99.90;;;;;;5012838;28;20483;-73
2023/10/11 11:50:33;;;;;;;25.45;13.43;;;20.20;99.90;;;;;;5009900;28;20026;-70
2023/10/11 11:53:05;;;;;;;21.20;13.73;;;20.20;99.90;;;;;;5010963;28;20372;-70
2023/10/11 11:55:35;;;;;;;;;;;20.20;99.90;;;;;;5028181;28;20029;-70
2023/10/11 11:58:10;;;;;;;23.80;13.30;;;20.30;99.90;;;;;;5010993;28;20347;-70
2023/10/11 12:00:39;;;;;;;29.98;14.07;;;20.30;99.90;;;;;;5010920;28;20060;-70
2023/10/11 12:03:08;;;;;;;17.92;13.85;;;20.30;99.90;;;;;;5013127;28;20184;-70
2023/10/11 12:05:40;;;;;;;21.98;15.00;;;20.30;99.90;;;;;;5010959;28;20064;-70
2023/10/11 12:08:20;;;;;;;23.90;15.48;;;20.30;99.90;;;;;;5012886;28;20033;-69
2023/10/11 12:10:49;;;;;;;19.20;13.38;;;20.30;99.90;;;;;;5010354;28;20041;-72
2023/10/11 12:13:22;;;;;;;19.13;13.45;;;20.40;99.90;;;;;;5010747;28;20092;-71
2023/10/11 12:15:54;;;;;;;18.33;12.77;;;20.30;99.90;;;;;;4998621;28;20034;-71
2023/10/11 12:18:21;;;;;;;19.85;13.50;;;20.30;99.90;;;;;;4991420;28;20129;-72
2023/10/11 12:20:47;;;;;;;22.17;13.18;;;20.30;99.90;;;;;;4993367;28;20053;-71
2023/10/11 12:23:13;;;;;;;18.52;13.38;;;20.40;99.90;;;;;;5007792;28;20121;-72
2023/10/11 12:25:40;;;;;;;20.83;12.02;;;20.40;99.90;;;;;;5003099;28;20109;-71
2023/10/11 12:28:07;;;;;;;17.15;12.70;;;20.50;99.90;;;;;;4995859;28;20053;-72
2023/10/11 12:30:37;;;;;;;16.70;12.05;;;20.40;99.90;;;;;;5004348;28;20030;-71
2023/10/11 12:33:06;;;;;;;22.85;12.95;;;20.40;99.90;;;;;;5000029;28;20022;-72
2023/10/11 12:35:40;;;;;;;21.63;13.15;;;20.50;99.90;;;;;;5001276;28;20029;-71
2023/10/11 12:38:12;;;;;;;18.98;12.88;;;20.50;99.90;;;;;;5009856;28;20485;-72
2023/10/11 12:40:44;;;;;;;20.00;12.68;;;20.50;99.90;;;;;;5006229;28;20030;-72
2023/10/11 12:43:10;;;;;;;17.58;13.13;;;20.50;99.90;;;;;;5002132;28;20529;-71
2023/10/11 12:45:42;;;;;;;20.23;13.05;;;20.50;99.90;;;;;;4999218;28;20037;-71
2023/10/11 12:48:10;;;;;;;16.48;12.35;;;20.50;99.90;;;;;;4999987;28;20696;-71
2023/10/11 12:50:36;;;;;;;25.30;13.00;;;20.50;99.90;;;;;;5006383;28;20448;-71
2023/10/11 12:53:13;;;;;;;25.63;13.07;;;20.60;99.90;;;;;;5011229;28;20065;-71
2023/10/11 12:55:48;;;;;;;22.00;12.68;;;20.50;99.90;;;;;;5014336;28;20025;-71
2023/10/11 12:58:15;;;;;;;18.63;11.75;;;20.60;99.90;;;;;;5006844;28;20025;-71
2023/10/11 13:00:51;;;;;;;22.85;12.77;;;20.60;99.90;;;;;;5001288;28;20037;-71
2023/10/11 13:03:29;;;;;;;18.35;11.73;;;20.70;99.90;;;;;;5011431;28;20033;-71
2023/10/11 13:05:55;;;;;;;17.88;12.50;;;20.70;99.90;;;;;;5009102;28;20679;-71
2023/10/11 13:08:24;;;;;;;21.10;11.98;;;20.60;99.90;;;;;;5008096;28;20034;-71
2023/10/11 13:10:51;;;;;;;21.33;13.35;;;20.70;99.90;;;;;;5014387;28;20040;-70
2023/10/11 13:13:17;;;;;;;20.08;13.32;;;20.60;99.90;;;;;;5010060;28;20030;-71
2023/10/11 13:15:59;;;;;;;20.77;12.13;;;20.70;99.90;;;;;;5013461;28;20022;-71
2023/10/11 13:18:29;;;;;;;20.60;12.20;;;20.70;99.90;;;;;;5013812;28;20365;-70
2023/10/11 13:20:55;;;;;;;18.30;12.52;;;20.70;99.90;;;;;;5014596;28;20041;-71
2023/10/11 13:23:33;;;;;;;17.83;12.25;;;20.70;99.90;;;;;;5015503;28;20041;-71
2023/10/11 13:26:08;;;;;;;16.52;11.75;;;20.80;99.90;;;;;;5014342;28;20581;-71
2023/10/11 13:28:35;;;;;;;17.40;12.68;;;20.80;99.90;;;;;;5013590;28;20037;-72
2023/10/11 13:31:02;;;;;;;17.58;12.25;;;20.80;99.90;;;;;;5012355;28;20109;-71
2023/10/11 13:33:35;;;;;;;14.73;12.10;;;20.80;99.90;;;;;;5014528;28;20017;-71
2023/10/11 13:36:05;;;;;;;23.33;13.57;;;20.80;99.90;;;;;;5014905;28;20018;-69
2023/10/11 13:38:31;;;;;;;14.50;11.50;;;20.80;99.90;;;;;;5012755;28;20822;-69
2023/10/11 13:41:01;;;;;;;16.77;10.75;;;20.80;99.90;;;;;;5012171;28;20101;-69
2023/10/11 13:43:27;;;;;;;17.27;11.27;;;20.90;99.90;;;;;;5008514;28;20030;-70
2023/10/11 13:46:06;;;;;;;18.40;10.43;;;20.90;99.90;;;;;;5014490;28;20025;-70
2023/10/11 13:48:40;;;;;;;16.63;10.55;;;20.90;99.90;;;;;;5013737;28;20475;-72
2023/10/11 13:51:16;;;;;;;18.33;11.05;;;21.00;99.90;;;;;;5009120;28;20018;-69